createdAt,value
2022-12-08T00:01:06.603Z,94.10
2022-12-08T00:03:23.921Z,94.66
2022-12-08T00:05:41.329Z,94.47
2022-12-08T00:07:58.688Z,94.57
2022-12-08T00:10:47.269Z,94.78
2022-12-08T00:12:52.863Z,94.72
2022-12-08T00:15:09.951Z,94.31
2022-12-08T00:17:27.059Z,93.14
2022-12-08T00:19:44.307Z,94.90
2022-12-08T00:22:01.360Z,93.29
2022-12-08T00:24:18.274Z,94.17
2022-12-08T00:26:35.366Z,94.50
2022-12-08T00:28:52.654Z,94.53
2022-12-08T00:31:09.858Z,94.53
2022-12-08T00:33:26.923Z,93.21
2022-12-08T00:35:43.953Z,94.44
2022-12-08T00:38:01.251Z,93.59
2022-12-08T00:40:18.221Z,93.82
2022-12-08T00:42:35.240Z,94.53
2022-12-08T00:44:52.438Z,94.43
2022-12-08T00:47:09.756Z,93.78
2022-12-08T00:49:26.823Z,94.45
2022-12-08T00:51:43.855Z,94.77
2022-12-08T00:54:00.851Z,94.89
2022-12-08T00:56:17.838Z,94.54
2022-12-08T00:58:35.876Z,95.03
2022-12-08T01:00:53.007Z,94.88
2022-12-08T01:03:11.078Z,93.85
2022-12-08T01:05:28.416Z,93.87
2022-12-08T01:07:46.563Z,95.37
2022-12-08T01:10:03.691Z,95.27
2022-12-08T01:12:21.290Z,94.53
2022-12-08T01:14:41.357Z,95.30
2022-12-08T01:16:58.297Z,94.34
2022-12-08T01:19:15.660Z,94.84
2022-12-08T01:21:32.687Z,95.16
2022-12-08T01:23:50.723Z,94.99
2022-12-08T01:26:07.707Z,94.75
2022-12-08T01:28:25.955Z,94.96
2022-12-08T01:30:43.350Z,95.15
2022-12-08T01:33:00.275Z,95.39
2022-12-08T01:35:17.551Z,94.93
2022-12-08T01:37:34.577Z,95.03
2022-12-08T01:39:51.679Z,94.57
2022-12-08T01:42:09.042Z,93.85
2022-12-08T01:44:26.007Z,94.67
2022-12-08T01:46:43.051Z,94.61
2022-12-08T01:49:00.395Z,94.24
2022-12-08T01:51:17.351Z,94.27
2022-12-08T01:53:34.758Z,95.26
2022-12-08T01:55:52.076Z,94.72
2022-12-08T01:58:09.149Z,93.95
2022-12-08T02:00:26.060Z,94.30
2022-12-08T02:02:43.466Z,94.09
2022-12-08T02:05:00.758Z,94.38
2022-12-08T02:07:17.854Z,95.42
2022-12-08T02:09:34.925Z,94.28
2022-12-08T02:11:52.940Z,95.12
2022-12-08T02:14:09.950Z,94.11
2022-12-08T02:16:27.948Z,94.60
2022-12-08T02:18:53.741Z,94.45
2022-12-08T02:21:23.200Z,95.39
2022-12-08T02:23:40.138Z,95.12
2022-12-08T02:25:57.299Z,94.63
2022-12-08T02:28:14.633Z,94.69
2022-12-08T02:30:33.881Z,95.49
2022-12-08T02:32:51.976Z,94.92
2022-12-08T02:35:09.038Z,94.56
2022-12-08T02:37:26.132Z,95.53
2022-12-08T02:39:45.367Z,95.30
2022-12-08T02:42:02.341Z,94.84
2022-12-08T02:44:19.719Z,95.39
2022-12-08T02:46:36.753Z,94.84
2022-12-08T02:48:54.002Z,95.61
2022-12-08T02:51:10.916Z,94.95
2022-12-08T02:53:27.875Z,94.90
2022-12-08T02:55:45.219Z,96.04
2022-12-08T02:58:03.261Z,94.64
2022-12-08T03:00:20.290Z,95.61
2022-12-08T03:02:37.681Z,94.91
2022-12-08T03:04:55.008Z,95.11
2022-12-08T03:07:11.897Z,95.21
2022-12-08T03:09:29.176Z,95.18
2022-12-08T03:11:47.263Z,95.32
2022-12-08T03:14:04.227Z,94.76
2022-12-08T03:16:21.443Z,94.46
2022-12-08T03:18:38.776Z,95.53
2022-12-08T03:20:56.072Z,94.87
2022-12-08T03:23:13.106Z,95.38
2022-12-08T03:25:30.438Z,94.64
2022-12-08T03:27:48.756Z,94.44
2022-12-08T03:30:06.227Z,95.56
2022-12-08T03:32:24.296Z,94.52
2022-12-08T03:34:42.299Z,94.28
2022-12-08T03:36:59.247Z,93.99
2022-12-08T03:39:16.347Z,94.86
2022-12-08T03:41:33.654Z,94.31
2022-12-08T03:43:50.627Z,94.03
2022-12-08T03:46:07.665Z,95.32
2022-12-08T03:48:25.025Z,94.82
2022-12-08T03:50:42.085Z,93.94
2022-12-08T03:52:59.031Z,94.88
2022-12-08T03:55:16.083Z,94.92
2022-12-08T03:57:33.175Z,94.95
2022-12-08T03:59:50.776Z,94.95
2022-12-08T04:02:08.176Z,93.66
2022-12-08T04:04:25.154Z,93.85
2022-12-08T04:06:44.395Z,93.65
2022-12-08T04:09:01.373Z,93.93
2022-12-08T04:11:18.350Z,94.11
2022-12-08T04:13:35.654Z,94.07
2022-12-08T04:15:53.094Z,93.26
2022-12-08T04:18:11.109Z,93.83
2022-12-08T04:20:29.363Z,94.28
2022-12-08T04:22:46.349Z,95.00
2022-12-08T04:25:03.590Z,94.94
2022-12-08T04:27:20.576Z,94.49
2022-12-08T04:29:37.537Z,94.01
2022-12-08T04:31:54.624Z,93.55
2022-12-08T04:34:11.964Z,94.05
2022-12-08T04:36:28.842Z,93.87
2022-12-08T04:38:45.733Z,95.12
2022-12-08T04:41:02.613Z,94.21
2022-12-08T04:43:19.563Z,95.04
2022-12-08T04:45:36.647Z,94.84
2022-12-08T04:47:53.582Z,94.96
2022-12-08T04:50:10.920Z,95.17
2022-12-08T04:52:28.343Z,95.37
2022-12-08T04:54:45.637Z,95.05
2022-12-08T04:57:02.863Z,95.43
2022-12-08T04:59:19.739Z,94.96
2022-12-08T05:01:37.204Z,94.94
2022-12-08T05:03:55.233Z,94.17
2022-12-08T05:06:12.115Z,93.39
2022-12-08T05:08:29.203Z,93.12
2022-12-08T05:10:46.228Z,93.38
2022-12-08T05:13:03.172Z,93.59
2022-12-08T05:15:20.444Z,93.31
2022-12-08T05:17:37.485Z,93.95
2022-12-08T05:19:54.797Z,93.03
2022-12-08T05:22:12.015Z,93.36
2022-12-08T05:24:29.234Z,94.19
2022-12-08T05:26:46.329Z,94.10
2022-12-08T05:29:03.279Z,93.22
2022-12-08T05:31:20.282Z,93.44
2022-12-08T05:33:37.373Z,94.31
2022-12-08T05:35:54.269Z,93.36
2022-12-08T05:38:11.208Z,93.15
2022-12-08T05:40:28.519Z,94.14
2022-12-08T05:42:45.812Z,94.42
2022-12-08T05:45:03.060Z,94.68
2022-12-08T05:47:19.934Z,93.98
2022-12-08T05:49:37.079Z,93.73
2022-12-08T05:51:55.070Z,93.66
2022-12-08T05:54:12.307Z,93.61
2022-12-08T05:56:29.350Z,94.79
2022-12-08T05:58:48.611Z,93.77
2022-12-08T06:01:05.535Z,94.61
2022-12-08T06:03:22.668Z,94.00
2022-12-08T06:05:39.820Z,95.46
2022-12-08T06:07:57.101Z,95.33
2022-12-08T06:10:14.051Z,94.39
2022-12-08T06:12:31.012Z,94.00
2022-12-08T06:14:48.048Z,93.94
2022-12-08T06:17:05.436Z,94.41
2022-12-08T06:19:22.416Z,94.69
2022-12-08T06:21:39.677Z,94.37
2022-12-08T06:23:56.758Z,94.50
2022-12-08T06:26:15.121Z,94.88
2022-12-08T06:28:32.421Z,94.11
2022-12-08T06:30:49.465Z,94.56
2022-12-08T06:33:06.420Z,94.79
2022-12-08T06:35:23.448Z,93.89
2022-12-08T06:37:40.316Z,93.87
2022-12-08T06:39:57.502Z,94.70
2022-12-08T06:42:14.567Z,94.96
2022-12-08T06:44:31.941Z,94.74
2022-12-08T06:46:49.167Z,94.56
2022-12-08T06:49:06.205Z,94.16
2022-12-08T06:51:23.246Z,94.36
2022-12-08T06:53:40.151Z,94.42
2022-12-08T06:55:59.602Z,95.07
2022-12-08T06:58:17.010Z,94.69
2022-12-08T07:00:33.973Z,94.31
2022-12-08T07:02:51.054Z,94.35
2022-12-08T07:05:08.120Z,94.61
2022-12-08T07:07:26.120Z,94.50
2022-12-08T07:09:43.497Z,94.69
2022-12-08T07:12:00.494Z,95.04
2022-12-08T07:14:18.395Z,94.14
2022-12-08T07:16:35.328Z,94.33
2022-12-08T07:18:53.387Z,94.45
2022-12-08T07:21:10.403Z,94.69
2022-12-08T07:23:27.453Z,94.44
2022-12-08T07:25:44.452Z,94.71
2022-12-08T07:28:01.538Z,94.23
2022-12-08T07:30:18.834Z,94.58
2022-12-08T07:32:36.767Z,94.39
2022-12-08T07:34:53.808Z,94.95
2022-12-08T07:37:10.890Z,94.29
2022-12-08T07:39:28.838Z,94.33
2022-12-08T07:41:45.829Z,95.05
2022-12-08T07:44:03.846Z,94.81
2022-12-08T07:46:20.840Z,94.49
2022-12-08T07:48:37.913Z,94.54
2022-12-08T07:50:54.816Z,95.16
2022-12-08T07:53:11.792Z,94.76
2022-12-08T07:55:29.077Z,94.51
2022-12-08T07:57:47.111Z,95.12
2022-12-08T08:00:04.380Z,95.15
2022-12-08T08:02:24.977Z,94.77
2022-12-08T08:04:43.209Z,94.64
2022-12-08T08:07:00.147Z,94.84
2022-12-08T08:09:17.451Z,95.68
2022-12-08T08:11:34.682Z,95.49
2022-12-08T08:13:52.023Z,96.24
2022-12-08T08:16:09.062Z,95.01
2022-12-08T08:18:26.486Z,95.42
2022-12-08T08:20:43.368Z,96.53
2022-12-08T08:23:00.629Z,95.33
2022-12-08T08:25:17.903Z,94.99
2022-12-08T08:27:34.859Z,95.16
2022-12-08T08:29:51.776Z,94.84
2022-12-08T08:32:09.131Z,95.28
2022-12-08T08:34:26.482Z,94.70
2022-12-08T08:36:43.405Z,94.68
2022-12-08T08:39:01.438Z,95.65
2022-12-08T08:41:18.486Z,94.89
2022-12-08T08:43:38.585Z,95.24
2022-12-08T08:45:56.030Z,94.30
2022-12-08T08:48:13.016Z,95.05
2022-12-08T08:50:35.843Z,95.13
2022-12-08T08:52:54.733Z,95.33
2022-12-08T08:55:11.792Z,95.33
2022-12-08T08:57:28.846Z,95.70
2022-12-08T08:59:45.942Z,95.68
2022-12-08T09:02:03.003Z,95.21
2022-12-08T09:04:20.357Z,95.11
2022-12-08T09:06:37.357Z,94.24
2022-12-08T09:08:54.677Z,94.06
2022-12-08T09:11:11.548Z,93.55
2022-12-08T09:13:28.612Z,93.83
2022-12-08T09:15:45.743Z,93.73
2022-12-08T09:18:02.967Z,93.36
2022-12-08T09:20:19.992Z,94.28
2022-12-08T09:22:36.991Z,93.21
2022-12-08T09:24:54.051Z,94.38
2022-12-08T09:27:11.317Z,92.86
2022-12-08T09:29:33.998Z,92.79
2022-12-08T09:31:52.904Z,92.31
2022-12-08T09:34:10.052Z,92.18
2022-12-08T09:36:26.966Z,92.29
2022-12-08T09:38:44.009Z,92.14
2022-12-08T09:41:01.055Z,90.94
2022-12-08T09:43:18.519Z,92.26
2022-12-08T09:45:35.425Z,91.68
2022-12-08T09:47:52.751Z,91.37
2022-12-08T09:50:10.679Z,89.91
2022-12-08T09:52:27.921Z,90.39
2022-12-08T09:54:44.966Z,88.61
2022-12-08T09:57:02.841Z,87.81
2022-12-08T09:59:19.844Z,85.53
2022-12-08T10:01:36.903Z,87.05
2022-12-08T10:03:53.880Z,83.52
2022-12-08T10:06:10.774Z,82.69
2022-12-08T10:08:28.244Z,83.35
2022-12-08T10:10:45.408Z,83.30
2022-12-08T10:13:03.325Z,81.93
2022-12-08T10:15:20.324Z,81.65
2022-12-08T10:17:37.252Z,81.44
2022-12-08T10:19:54.225Z,82.56
2022-12-08T10:22:11.545Z,82.77
2022-12-08T10:24:28.559Z,81.36
2022-12-08T10:26:45.524Z,80.90
2022-12-08T10:29:02.568Z,81.59
2022-12-08T10:31:19.704Z,79.86
2022-12-08T10:33:36.842Z,80.25
2022-12-08T10:35:54.203Z,78.67
2022-12-08T10:38:11.519Z,79.11
2022-12-08T10:40:29.821Z,78.29
2022-12-08T10:42:47.074Z,79.68
2022-12-08T10:45:04.013Z,79.59
2022-12-08T10:47:21.010Z,81.88
2022-12-08T10:49:37.950Z,79.72
2022-12-08T10:51:54.898Z,78.63
2022-12-08T10:54:11.872Z,78.54
2022-12-08T10:56:29.167Z,79.63
2022-12-08T10:58:46.606Z,80.02
2022-12-08T11:01:03.540Z,76.08
2022-12-08T11:03:20.486Z,74.75
2022-12-08T11:05:37.368Z,76.13
2022-12-08T11:07:54.417Z,78.35
2022-12-08T11:10:11.467Z,78.33
2022-12-08T11:12:28.446Z,76.75
2022-12-08T11:14:45.469Z,76.08
2022-12-08T11:17:02.758Z,75.10
2022-12-08T11:19:20.145Z,73.96
2022-12-08T11:21:37.251Z,75.19
2022-12-08T11:23:54.285Z,75.12
2022-12-08T11:26:11.630Z,76.30
2022-12-08T11:28:28.496Z,74.63
2022-12-08T11:30:45.489Z,73.14
2022-12-08T11:33:02.750Z,70.61
2022-12-08T11:35:19.902Z,72.30
2022-12-08T11:37:36.894Z,71.50
2022-12-08T11:39:53.864Z,70.83
2022-12-08T11:42:10.909Z,72.29
2022-12-08T11:44:27.936Z,72.32
2022-12-08T11:46:44.936Z,71.97
2022-12-08T11:49:06.200Z,71.90
2022-12-08T11:51:25.319Z,71.35
2022-12-08T11:53:42.300Z,70.06
2022-12-08T11:55:59.348Z,70.34
2022-12-08T11:58:16.652Z,70.32
2022-12-08T12:00:34.560Z,70.47
2022-12-08T12:02:51.653Z,70.23
2022-12-08T12:05:08.972Z,72.42
2022-12-08T12:07:26.532Z,70.81
2022-12-08T12:09:43.628Z,69.95
2022-12-08T12:12:01.947Z,71.76
2022-12-08T12:14:19.003Z,69.59
2022-12-08T12:16:36.083Z,72.48
2022-12-08T12:18:53.125Z,70.74
2022-12-08T12:21:10.089Z,71.22
2022-12-08T12:23:27.068Z,71.16
2022-12-08T12:25:44.059Z,71.43
2022-12-08T12:28:01.286Z,71.32
2022-12-08T12:30:18.286Z,73.19
2022-12-08T12:32:36.582Z,71.89
2022-12-08T12:34:54.798Z,71.16
2022-12-08T12:37:11.830Z,71.42
2022-12-08T12:39:30.174Z,71.26
2022-12-08T12:41:47.156Z,72.86
2022-12-08T12:44:04.107Z,72.48
2022-12-08T12:46:21.388Z,74.82
2022-12-08T12:48:38.359Z,73.56
2022-12-08T12:50:55.296Z,73.54
2022-12-08T12:53:13.940Z,70.59
2022-12-08T12:55:31.319Z,68.77
2022-12-08T12:57:49.702Z,69.42
2022-12-08T13:00:07.028Z,71.25
2022-12-08T13:02:24.320Z,69.25
2022-12-08T13:04:41.260Z,69.08
2022-12-08T13:06:58.581Z,69.87
2022-12-08T13:09:15.834Z,69.73
2022-12-08T13:11:33.082Z,69.44
2022-12-08T13:13:50.046Z,69.90
2022-12-08T13:16:17.132Z,67.71
2022-12-08T13:18:36.291Z,69.85
2022-12-08T13:20:53.525Z,71.12
2022-12-08T13:23:10.560Z,69.98
2022-12-08T13:25:29.481Z,69.10
2022-12-08T13:27:48.660Z,71.82
2022-12-08T13:30:05.897Z,70.20
2022-12-08T13:32:23.912Z,72.17
2022-12-08T13:34:41.142Z,71.23
2022-12-08T13:36:58.367Z,71.19
2022-12-08T13:39:15.655Z,69.98
2022-12-08T13:41:32.651Z,69.79
2022-12-08T13:44:14.301Z,71.10
2022-12-08T13:47:09.377Z,72.54
2022-12-08T13:57:10.444Z,71.14
2022-12-08T13:59:28.734Z,72.11
2022-12-08T14:01:45.847Z,73.78
2022-12-08T14:04:34.036Z,72.93
2022-12-08T14:06:40.973Z,73.73
2022-12-08T14:09:02.291Z,73.98
2022-12-08T14:11:23.769Z,73.99
2022-12-08T14:13:41.061Z,74.51
2022-12-08T14:15:58.043Z,75.00
2022-12-08T14:18:15.032Z,76.11
2022-12-08T14:20:33.853Z,76.61
2022-12-08T14:22:59.360Z,75.98
2022-12-08T14:25:16.180Z,75.27
2022-12-08T14:27:33.363Z,74.97
2022-12-08T14:29:50.618Z,75.75
2022-12-08T14:32:07.713Z,75.97
2022-12-08T14:34:25.694Z,74.69
2022-12-08T14:36:42.947Z,74.72
2022-12-08T14:39:00.203Z,74.49
2022-12-08T14:41:17.218Z,74.43
2022-12-08T14:43:34.173Z,73.76
2022-12-08T14:45:51.468Z,74.74
2022-12-08T14:48:08.383Z,74.36
2022-12-08T14:50:25.651Z,74.37
2022-12-08T14:52:42.999Z,74.52
2022-12-08T14:55:00.208Z,75.02
2022-12-08T14:57:17.325Z,74.77
2022-12-08T14:59:34.240Z,73.93
2022-12-08T15:01:51.216Z,74.42
2022-12-08T15:04:08.508Z,73.89
2022-12-08T15:06:25.812Z,74.42
2022-12-08T15:08:43.084Z,73.14
2022-12-08T15:11:00.337Z,75.11
2022-12-08T15:13:17.383Z,74.89
2022-12-08T15:15:34.313Z,74.73
2022-12-08T15:17:51.689Z,75.37
2022-12-08T15:20:09.087Z,75.97
2022-12-08T15:22:26.204Z,74.54
2022-12-08T15:24:43.148Z,75.30
2022-12-08T15:27:00.421Z,74.49
2022-12-08T15:29:17.378Z,74.95
2022-12-08T15:31:34.514Z,75.26
2022-12-08T15:33:51.726Z,75.36
2022-12-08T15:36:08.764Z,76.16
2022-12-08T15:38:27.067Z,76.25
2022-12-08T15:40:43.951Z,75.97
2022-12-08T15:43:01.028Z,77.30
2022-12-08T15:45:18.322Z,77.87
2022-12-08T15:47:36.673Z,77.90
2022-12-08T15:49:53.677Z,78.19
2022-12-08T15:52:11.933Z,78.96
2022-12-08T15:54:29.056Z,80.17
2022-12-08T15:57:17.201Z,80.01
2022-12-08T15:59:23.264Z,79.32
2022-12-08T16:01:40.715Z,81.00
2022-12-08T16:09:13.101Z,80.23
2022-12-08T16:12:03.820Z,81.12
2022-12-08T16:14:42.019Z,80.71
2022-12-08T16:16:44.572Z,82.12
2022-12-08T16:19:01.817Z,80.46
2022-12-08T16:23:56.007Z,82.36
2022-12-08T16:26:35.776Z,82.68
2022-12-08T16:28:54.940Z,82.19
2022-12-08T16:31:15.060Z,83.04
2022-12-08T16:33:33.726Z,82.87
2022-12-08T16:35:50.622Z,83.30
2022-12-08T16:38:08.715Z,84.34
2022-12-08T16:40:26.038Z,83.78
2022-12-08T16:42:43.160Z,84.24
2022-12-08T16:45:02.236Z,83.48
2022-12-08T16:47:19.536Z,83.74
2022-12-08T16:49:36.573Z,84.09
2022-12-08T16:51:53.667Z,83.85
2022-12-08T16:54:10.627Z,82.86
2022-12-08T16:56:32.584Z,83.53
2022-12-08T16:58:50.871Z,83.56
2022-12-08T17:01:08.008Z,82.45
2022-12-08T17:03:25.089Z,82.58
2022-12-08T17:05:42.077Z,83.06
2022-12-08T17:07:59.053Z,83.30
2022-12-08T17:10:15.981Z,83.53
2022-12-08T17:12:32.955Z,82.79
2022-12-08T17:14:50.220Z,83.96
2022-12-08T17:17:07.506Z,84.40
2022-12-08T17:19:24.842Z,84.38
2022-12-08T17:21:41.885Z,83.01
2022-12-08T17:23:59.160Z,84.02
2022-12-08T17:26:16.350Z,84.17
2022-12-08T17:28:58.893Z,84.31
2022-12-08T17:31:10.150Z,84.19
2022-12-08T17:33:27.085Z,83.91
2022-12-08T17:35:44.356Z,84.17
2022-12-08T17:38:01.315Z,84.29
2022-12-08T17:40:18.328Z,84.32
2022-12-08T17:42:35.236Z,83.57
2022-12-08T17:44:52.503Z,84.60
2022-12-08T17:47:09.834Z,84.15
2022-12-08T17:49:27.872Z,84.12
2022-12-08T17:51:44.844Z,84.81
2022-12-08T17:54:01.769Z,84.00
2022-12-08T17:56:18.778Z,85.76
2022-12-08T17:58:35.812Z,84.97
2022-12-08T18:00:52.758Z,85.69
2022-12-08T18:03:09.681Z,85.81
2022-12-08T18:05:26.750Z,86.16
2022-12-08T18:07:44.853Z,85.43
2022-12-08T18:10:01.926Z,85.45
2022-12-08T18:12:23.412Z,85.22
2022-12-08T18:14:40.864Z,85.12
2022-12-08T18:16:58.039Z,85.28
2022-12-08T18:19:15.102Z,84.60
2022-12-08T18:21:33.077Z,84.35
2022-12-08T18:23:50.363Z,84.55
2022-12-08T18:26:07.266Z,85.37
2022-12-08T18:28:25.163Z,85.18
2022-12-08T18:30:42.472Z,84.92
2022-12-08T18:33:00.750Z,85.69
2022-12-08T18:35:17.734Z,85.70
2022-12-08T18:37:34.730Z,86.25
2022-12-08T18:39:51.764Z,86.19
2022-12-08T18:42:08.718Z,85.52
2022-12-08T18:44:26.994Z,85.19
2022-12-08T18:46:44.289Z,86.14
2022-12-08T18:49:01.254Z,85.22
2022-12-08T18:51:18.756Z,85.62
2022-12-08T18:53:36.049Z,86.02
2022-12-08T18:55:53.313Z,86.29
2022-12-08T18:58:11.079Z,85.46
2022-12-08T19:00:28.254Z,85.72
2022-12-08T19:02:45.287Z,86.05
2022-12-08T19:05:02.499Z,85.92
2022-12-08T19:07:19.421Z,86.23
2022-12-08T19:09:36.395Z,85.80
2022-12-08T19:11:54.692Z,86.35
2022-12-08T19:14:11.609Z,86.16
2022-12-08T19:16:29.683Z,85.94
2022-12-08T19:18:47.021Z,86.40
2022-12-08T19:21:03.963Z,85.59
2022-12-08T19:23:21.942Z,85.67
2022-12-08T19:25:38.907Z,86.90
2022-12-08T19:27:56.257Z,86.08
2022-12-08T19:30:14.315Z,86.85
2022-12-08T19:32:31.591Z,87.08
2022-12-08T19:34:48.882Z,86.58
2022-12-08T19:37:05.974Z,86.61
2022-12-08T19:39:23.227Z,86.31
2022-12-08T19:41:40.224Z,86.64
2022-12-08T19:43:57.470Z,87.32
2022-12-08T19:46:14.434Z,86.81
2022-12-08T19:48:31.430Z,88.00
2022-12-08T19:50:48.336Z,87.02
2022-12-08T19:53:05.642Z,87.29
2022-12-08T19:55:22.709Z,87.17
2022-12-08T19:57:39.702Z,86.47
2022-12-08T19:59:56.908Z,88.05
2022-12-08T20:02:14.977Z,87.94
2022-12-08T20:04:32.393Z,87.91
2022-12-08T20:06:50.295Z,88.00
2022-12-08T20:09:07.366Z,87.63
2022-12-08T20:11:24.303Z,87.09
2022-12-08T20:13:41.738Z,87.08
2022-12-08T20:15:59.853Z,88.25
2022-12-08T20:18:17.271Z,87.38
2022-12-08T20:20:34.292Z,88.05
2022-12-08T20:22:51.248Z,87.39
2022-12-08T20:25:12.543Z,86.87
2022-12-08T20:27:30.180Z,87.57
2022-12-08T20:29:47.436Z,87.15
2022-12-08T20:32:04.649Z,87.73
2022-12-08T20:34:21.616Z,87.17
2022-12-08T20:36:38.945Z,87.16
2022-12-08T20:38:55.994Z,87.64
2022-12-08T20:41:13.071Z,87.82
2022-12-08T20:43:30.153Z,88.10
2022-12-08T20:45:47.157Z,87.20
2022-12-08T20:48:04.374Z,87.21
2022-12-08T20:50:21.668Z,88.15
2022-12-08T20:52:38.941Z,88.29
2022-12-08T20:54:57.353Z,88.58
2022-12-08T20:57:14.768Z,87.96
2022-12-08T20:59:32.915Z,88.34
2022-12-08T21:01:50.139Z,88.23
2022-12-08T21:04:07.279Z,88.16
2022-12-08T21:06:24.809Z,88.08
2022-12-08T21:08:42.333Z,87.99
2022-12-08T21:10:59.395Z,87.94
2022-12-08T21:13:16.455Z,87.86
2022-12-08T21:15:33.853Z,88.64
2022-12-08T21:17:50.896Z,87.63
2022-12-08T21:20:08.516Z,88.59
2022-12-08T21:22:26.047Z,88.16
2022-12-08T21:24:43.937Z,88.02
2022-12-08T21:27:01.196Z,88.62
2022-12-08T21:29:18.556Z,88.11
2022-12-08T21:31:35.964Z,88.39
2022-12-08T21:33:53.223Z,88.93
2022-12-08T21:36:10.761Z,88.97
2022-12-08T21:38:27.796Z,88.85
2022-12-08T21:40:44.862Z,89.12
2022-12-08T21:43:02.093Z,88.50
2022-12-08T21:45:19.126Z,88.62
2022-12-08T21:47:36.194Z,87.81
2022-12-08T21:49:53.592Z,88.22
2022-12-08T21:52:10.991Z,88.63
2022-12-08T21:54:28.348Z,88.26
2022-12-08T21:56:45.337Z,88.25
2022-12-08T21:59:03.610Z,88.52
2022-12-08T22:01:21.154Z,88.01
2022-12-08T22:03:38.415Z,89.10
2022-12-08T22:05:55.908Z,88.83
2022-12-08T22:08:13.208Z,88.41
2022-12-08T22:10:30.269Z,88.81
2022-12-08T22:12:47.610Z,89.66
2022-12-08T22:15:04.538Z,89.01
2022-12-08T22:17:21.793Z,89.32
2022-12-08T22:19:39.097Z,89.52
2022-12-08T22:21:56.266Z,89.13
2022-12-08T22:24:13.361Z,88.54
2022-12-08T22:26:30.288Z,89.21
2022-12-08T22:28:48.317Z,89.80
2022-12-08T22:31:05.397Z,88.45
2022-12-08T22:33:22.533Z,88.75
2022-12-08T22:35:39.755Z,89.26
2022-12-08T22:37:56.954Z,89.25
2022-12-08T22:40:13.946Z,89.09
2022-12-08T22:42:30.854Z,89.24
2022-12-08T22:44:47.758Z,89.39
2022-12-08T22:47:04.949Z,88.88
2022-12-08T22:49:22.062Z,89.48
2022-12-08T22:51:39.468Z,88.76
2022-12-08T22:53:56.488Z,89.17
2022-12-08T22:56:13.379Z,89.15
2022-12-08T22:58:30.355Z,89.87
2022-12-08T23:00:47.288Z,88.94
2022-12-08T23:03:04.778Z,89.56
2022-12-08T23:05:22.411Z,88.94
2022-12-08T23:07:40.236Z,88.92
2022-12-08T23:09:57.445Z,88.93
2022-12-08T23:12:14.562Z,89.22
2022-12-08T23:14:31.947Z,89.38
2022-12-08T23:16:49.384Z,89.31
2022-12-08T23:19:06.775Z,89.11
2022-12-08T23:21:24.091Z,89.09
2022-12-08T23:23:42.456Z,89.17
2022-12-08T23:26:01.038Z,88.82
2022-12-08T23:28:18.143Z,88.45
2022-12-08T23:30:35.073Z,88.87
2022-12-08T23:32:52.223Z,88.89
2022-12-08T23:35:10.525Z,89.54
2022-12-08T23:37:27.548Z,89.10
2022-12-08T23:39:44.900Z,90.09
2022-12-08T23:42:03.179Z,90.26
2022-12-08T23:44:20.277Z,89.93
2022-12-08T23:46:37.398Z,89.52
2022-12-08T23:48:55.056Z,90.24
2022-12-08T23:51:12.649Z,89.89
2022-12-08T23:53:29.836Z,90.42
2022-12-08T23:55:46.922Z,89.77
2022-12-08T23:58:04.237Z,90.07
